Time;durP1;ratioP1;P1;durP2;ratioP2;P2;SDS_P1;SDS_P2;PMS_P1;PMS_P2;Temp;Humidity;BMP_temperature;BMP_pressure;BME280_temperature;BME280_humidity;BME280_pressure;Samples;Min_cycle;Max_cycle;Signal;HPM_P1;HPM_P2
2023/03/02 00:01:41;;;;;;;1999.90;999.90;;;1.60;99.90;;;;;;5089653;28;20247;-51
2023/03/02 00:04:14;;;;;;;1885.47;999.90;;;1.70;99.90;;;;;;5089435;28;20214;-51
2023/03/02 00:06:42;;;;;;;1999.90;999.90;;;1.70;99.90;;;;;;5089383;28;20212;-51
2023/03/02 00:09:10;;;;;;;1999.90;999.90;;;1.70;99.90;;;;;;5089130;28;20733;-52
2023/03/02 00:11:40;;;;;;;1999.90;999.90;;;1.70;99.90;;;;;;5089045;28;20339;-52
2023/03/02 00:14:08;;;;;;;1998.07;999.90;;;1.70;99.90;;;;;;5089607;28;20296;-52
2023/03/02 00:16:36;;;;;;;1999.90;999.90;;;1.70;99.90;;;;;;5089857;28;20253;-51
2023/03/02 00:19:04;;;;;;;1999.90;999.90;;;1.60;99.90;;;;;;5091246;28;20255;-50
2023/03/02 00:21:32;;;;;;;1999.90;999.90;;;1.70;99.90;;;;;;5096382;28;20214;-49
2023/03/02 00:24:00;;;;;;;1999.90;999.90;;;1.60;99.90;;;;;;5095664;28;20298;-50
2023/03/02 00:26:28;;;;;;;1999.90;999.90;;;1.60;99.90;;;;;;5096061;28;20673;-49
2023/03/02 00:28:57;;;;;;;1999.90;999.90;;;1.70;99.90;;;;;;5095968;28;20220;-49
2023/03/02 00:31:26;;;;;;;1999.90;999.90;;;1.60;99.90;;;;;;5095991;28;20650;-49
2023/03/02 00:33:54;;;;;;;1999.90;999.90;;;1.70;99.90;;;;;;5095426;28;20259;-50
2023/03/02 00:36:23;;;;;;;1999.90;999.90;;;1.60;99.90;;;;;;5096234;28;20242;-50
2023/03/02 00:38:52;;;;;;;1743.63;999.90;;;1.60;99.90;;;;;;5096056;28;20286;-49
2023/03/02 00:41:21;;;;;;;1984.50;999.90;;;1.60;99.90;;;;;;5096173;28;20245;-50
2023/03/02 00:43:50;;;;;;;1999.90;999.90;;;1.50;99.90;;;;;;5095833;28;20286;-50
2023/03/02 00:46:21;;;;;;;1999.90;999.90;;;1.50;99.90;;;;;;5096243;28;20302;-50
2023/03/02 00:48:50;;;;;;;1619.70;999.90;;;1.50;99.90;;;;;;5095334;28;20660;-50
2023/03/02 00:54:43;;;;;;;1980.20;999.90;;;1.50;99.90;;;;;;5094055;28;20219;-52
2023/03/02 00:57:11;;;;;;;1575.80;999.90;;;1.50;99.90;;;;;;5096015;28;20311;-51
2023/03/02 00:59:39;;;;;;;1822.47;999.90;;;1.40;99.90;;;;;;5095702;28;20332;-52
2023/03/02 01:02:09;;;;;;;1999.90;999.90;;;1.40;99.90;;;;;;5095233;28;20246;-52
2023/03/02 01:04:39;;;;;;;1599.47;999.90;;;1.40;99.90;;;;;;5096264;28;20288;-52
2023/03/02 01:07:10;;;;;;;1966.90;999.90;;;1.40;99.90;;;;;;5095597;28;20309;-52
2023/03/02 01:09:41;;;;;;;1999.90;999.90;;;1.40;99.90;;;;;;5095033;28;20231;-52
2023/03/02 01:12:10;;;;;;;1999.90;999.90;;;1.50;99.90;;;;;;5095656;28;20314;-51
2023/03/02 01:14:40;;;;;;;1999.90;999.90;;;1.50;99.90;;;;;;5095924;28;20197;-52
2023/03/02 01:17:11;;;;;;;1999.90;999.90;;;1.40;99.90;;;;;;5095546;28;20238;-52
2023/03/02 01:19:40;;;;;;;1999.90;999.90;;;1.40;99.90;;;;;;5095336;28;20216;-51
2023/03/02 01:22:09;;;;;;;1999.90;999.90;;;1.40;99.90;;;;;;5095263;28;20665;-52
2023/03/02 01:24:37;;;;;;;1999.90;999.90;;;1.40;99.90;;;;;;5095460;28;20295;-51
2023/03/02 01:27:05;;;;;;;1943.07;999.90;;;1.40;99.90;;;;;;5096026;28;20258;-52
2023/03/02 01:29:33;;;;;;;1908.23;999.90;;;1.40;99.90;;;;;;5095766;28;20231;-51
2023/03/02 01:32:01;;;;;;;1456.40;999.90;;;1.40;99.90;;;;;;5091522;28;20312;-52
2023/03/02 01:34:32;;;;;;;1999.90;999.90;;;1.40;99.90;;;;;;5092334;28;20211;-52
2023/03/02 01:37:00;;;;;;;1656.57;999.90;;;1.30;99.90;;;;;;5092040;28;20321;-51
2023/03/02 01:39:28;;;;;;;1980.03;999.90;;;1.30;99.90;;;;;;5091461;28;20311;-51
2023/03/02 01:41:56;;;;;;;1817.90;999.90;;;1.30;99.90;;;;;;5092383;28;20207;-52
2023/03/02 01:44:39;;;;;;;1999.90;999.90;;;1.30;99.90;;;;;;5091869;28;20733;-51
2023/03/02 01:47:17;;;;;;;1999.90;999.90;;;1.30;99.90;;;;;;5092145;28;20291;-52
2023/03/02 01:49:50;;;;;;;1999.90;999.90;;;1.30;99.90;;;;;;5085276;28;20314;-53
2023/03/02 01:52:19;;;;;;;1999.90;999.90;;;1.30;99.90;;;;;;5092005;28;20307;-52
2023/03/02 01:54:49;;;;;;;1696.80;999.90;;;1.30;99.90;;;;;;5092632;28;20240;-52
2023/03/02 01:57:23;;;;;;;1999.90;999.90;;;1.30;99.90;;;;;;5091776;28;20200;-53
2023/03/02 01:59:58;;;;;;;1999.90;999.90;;;1.30;99.90;;;;;;5091917;28;20772;-52
2023/03/02 02:02:26;;;;;;;1999.90;999.90;;;1.30;99.90;;;;;;5092091;28;20222;-53
2023/03/02 02:04:56;;;;;;;1999.90;999.90;;;1.40;99.90;;;;;;5091872;28;20248;-51
2023/03/02 02:07:24;;;;;;;1999.90;999.90;;;1.40;99.90;;;;;;5091239;28;20309;-52
2023/03/02 02:09:53;;;;;;;1884.50;999.90;;;1.30;99.90;;;;;;5091477;28;20315;-51
2023/03/02 02:12:22;;;;;;;1999.90;999.90;;;1.40;99.90;;;;;;5091131;28;20323;-50
2023/03/02 02:14:51;;;;;;;1999.90;999.90;;;1.30;99.90;;;;;;5091855;28;20295;-51
2023/03/02 02:17:19;;;;;;;1999.90;999.90;;;1.50;99.90;;;;;;5090383;28;20297;-52
2023/03/02 02:20:04;;;;;;;1999.90;999.90;;;1.40;99.90;;;;;;5091774;28;20315;-51
2023/03/02 02:22:43;;;;;;;1779.50;999.90;;;1.30;99.90;;;;;;5091912;28;20239;-52
2023/03/02 02:25:20;;;;;;;1999.90;999.90;;;1.30;99.90;;;;;;5091635;28;20676;-52
2023/03/02 02:27:50;;;;;;;1999.90;999.90;;;1.30;99.90;;;;;;5091310;28;20403;-52
2023/03/02 02:30:20;;;;;;;1771.27;999.90;;;1.30;99.90;;;;;;5091223;28;20258;-53
2023/03/02 02:32:49;;;;;;;1999.90;999.90;;;1.30;99.90;;;;;;5091550;28;20230;-52
2023/03/02 02:35:21;;;;;;;1999.90;999.90;;;1.40;99.90;;;;;;5091363;28;20676;-52
2023/03/02 02:37:52;;;;;;;1965.57;999.90;;;1.30;99.90;;;;;;5091392;28;20213;-52
2023/03/02 02:40:23;;;;;;;1999.90;999.90;;;1.30;99.90;;;;;;5091234;28;20223;-52
2023/03/02 02:42:54;;;;;;;1999.90;999.90;;;1.30;99.90;;;;;;5093081;28;20576;-51
2023/03/02 02:45:24;;;;;;;1999.90;999.90;;;1.30;99.90;;;;;;5095800;28;20231;-51
2023/03/02 02:48:05;;;;;;;1999.90;999.90;;;1.30;99.90;;;;;;5095162;28;20632;-52
2023/03/02 02:50:36;;;;;;;1999.90;999.90;;;1.30;99.90;;;;;;5093266;28;20311;-52
2023/03/02 02:53:09;;;;;;;1968.60;999.90;;;1.30;99.90;;;;;;5094191;28;20225;-52
2023/03/02 02:55:39;;;;;;;1999.90;999.90;;;1.30;99.90;;;;;;5091147;28;20294;-51
2023/03/02 02:58:20;;;;;;;1999.90;999.90;;;1.30;99.90;;;;;;5090246;28;20760;-52
2023/03/02 03:00:48;;;;;;;1999.90;999.90;;;1.40;99.90;;;;;;5081490;28;20317;-52
2023/03/02 03:03:29;;;;;;;1999.90;999.90;;;1.30;99.90;;;;;;5090959;28;20207;-52
2023/03/02 03:05:58;;;;;;;1899.33;999.90;;;1.30;99.90;;;;;;5090282;28;20243;-52
2023/03/02 03:08:50;;;;;;;1999.90;999.90;;;1.40;99.90;;;;;;5090054;28;20208;-52
2023/03/02 03:11:22;;;;;;;1610.70;999.90;;;1.30;99.90;;;;;;5090420;28;20302;-52
2023/03/02 03:13:56;;;;;;;1386.47;999.90;;;1.30;99.90;;;;;;5076672;28;20285;-52
2023/03/02 03:16:26;;;;;;;1999.90;999.90;;;1.30;99.90;;;;;;5090225;28;20217;-52
2023/03/02 03:18:57;;;;;;;1791.57;999.90;;;1.20;99.90;;;;;;5075844;28;20204;-52
2023/03/02 03:21:25;;;;;;;1999.90;999.90;;;1.30;99.90;;;;;;5089970;28;20287;-52
2023/03/02 03:23:53;;;;;;;1999.90;999.90;;;1.30;99.90;;;;;;5089518;28;20193;-51
2023/03/02 03:26:21;;;;;;;1999.90;999.90;;;1.30;99.90;;;;;;5090259;28;20239;-52
2023/03/02 03:28:49;;;;;;;1856.90;999.90;;;1.30;99.90;;;;;;5089452;28;20298;-52
2023/03/02 03:31:18;;;;;;;1999.90;999.90;;;1.30;99.90;;;;;;5090061;28;20295;-52
2023/03/02 03:33:48;;;;;;;1999.90;999.90;;;1.20;99.90;;;;;;5089950;28;20255;-52
2023/03/02 03:36:16;;;;;;;1999.90;999.90;;;1.20;99.90;;;;;;5089555;28;20207;-52
2023/03/02 03:38:44;;;;;;;1999.90;999.90;;;1.20;99.90;;;;;;5089465;28;20210;-51
2023/03/02 03:41:12;;;;;;;1739.83;999.90;;;1.30;99.90;;;;;;5090276;28;20287;-52
2023/03/02 03:43:40;;;;;;;1999.90;999.90;;;1.30;99.90;;;;;;5090069;28;20297;-52
2023/03/02 03:46:08;;;;;;;1706.07;999.90;;;1.20;99.90;;;;;;5089362;28;20257;-52
2023/03/02 03:48:38;;;;;;;1999.90;999.90;;;1.30;99.90;;;;;;5089548;28;20217;-52
2023/03/02 03:51:07;;;;;;;1999.90;999.90;;;1.40;99.90;;;;;;5089187;28;20239;-52
2023/03/02 03:53:35;;;;;;;1999.90;999.90;;;1.30;99.90;;;;;;5088492;28;20228;-52
2023/03/02 03:56:03;;;;;;;1999.90;999.90;;;1.30;99.90;;;;;;5089807;28;20928;-51
2023/03/02 03:58:32;;;;;;;1999.90;999.90;;;1.30;99.90;;;;;;5090082;28;20274;-52
2023/03/02 04:01:00;;;;;;;1991.60;999.90;;;1.20;99.90;;;;;;5089523;28;20255;-52
2023/03/02 04:03:28;;;;;;;1615.70;999.90;;;1.30;99.90;;;;;;5089846;28;20210;-51
2023/03/02 04:05:57;;;;;;;1999.90;999.90;;;1.30;99.90;;;;;;5089248;28;20239;-52
2023/03/02 04:08:25;;;;;;;1541.50;999.90;;;1.20;99.90;;;;;;5089454;28;20210;-52
2023/03/02 04:10:53;;;;;;;1918.03;999.90;;;1.20;99.90;;;;;;5089287;28;20241;-52
2023/03/02 04:13:21;;;;;;;1999.90;999.90;;;1.20;99.90;;;;;;5089291;28;20314;-52
2023/03/02 04:15:49;;;;;;;1641.43;999.90;;;1.20;99.90;;;;;;5089450;28;20695;-52
2023/03/02 04:18:17;;;;;;;1560.97;999.90;;;1.20;99.90;;;;;;5089567;28;20209;-52
2023/03/02 04:20:45;;;;;;;1683.00;999.90;;;1.10;99.90;;;;;;5089349;28;20670;-53
2023/03/02 04:23:14;;;;;;;1634.30;999.90;;;1.10;99.90;;;;;;5085570;28;20301;-51
2023/03/02 04:25:42;;;;;;;1579.37;999.90;;;1.00;99.90;;;;;;5088998;28;20579;-52
2023/03/02 04:28:10;;;;;;;1999.90;999.90;;;1.00;99.90;;;;;;5089046;28;20304;-52
2023/03/02 04:30:38;;;;;;;1999.90;999.90;;;1.00;99.90;;;;;;5088805;28;20250;-51
2023/03/02 04:33:06;;;;;;;1999.90;999.90;;;1.00;99.90;;;;;;5089632;28;20254;-50
2023/03/02 04:35:34;;;;;;;1969.37;999.90;;;1.00;99.90;;;;;;5088865;28;20239;-51
2023/03/02 04:38:02;;;;;;;1999.90;999.90;;;1.10;99.90;;;;;;5089476;28;20301;-50
2023/03/02 04:40:32;;;;;;;1999.90;999.90;;;1.00;99.90;;;;;;5088705;28;20703;-50
2023/03/02 04:43:00;;;;;;;1999.90;999.90;;;1.10;99.90;;;;;;5088979;28;20637;-50
2023/03/02 04:45:28;;;;;;;1999.90;999.90;;;1.20;99.90;;;;;;5089114;28;20210;-50
2023/03/02 04:47:56;;;;;;;1999.90;999.90;;;1.10;99.90;;;;;;5089317;28;20284;-50
2023/03/02 04:50:24;;;;;;;1999.90;999.90;;;1.10;99.90;;;;;;5089404;28;20235;-50
2023/03/02 04:52:52;;;;;;;1999.90;999.90;;;1.10;99.90;;;;;;5088827;28;20214;-49
2023/03/02 04:55:23;;;;;;;1999.90;999.90;;;1.10;99.90;;;;;;5089120;28;20239;-51
2023/03/02 04:57:52;;;;;;;1999.90;999.90;;;1.10;99.90;;;;;;5089084;28;20930;-51
2023/03/02 05:00:21;;;;;;;1999.90;999.90;;;1.10;99.90;;;;;;5088967;28;20299;-50
2023/03/02 05:02:49;;;;;;;1793.30;999.90;;;1.10;99.90;;;;;;5089029;28;20296;-51
2023/03/02 05:05:19;;;;;;;1999.90;999.90;;;1.10;99.90;;;;;;5088921;28;20291;-51
2023/03/02 05:07:47;;;;;;;1999.90;999.90;;;1.10;99.90;;;;;;5092445;28;21161;-50
2023/03/02 05:10:17;;;;;;;1918.30;999.90;;;1.00;99.90;;;;;;5092956;28;20308;-50
2023/03/02 05:12:56;;;;;;;1999.90;999.90;;;1.10;99.90;;;;;;5092554;28;20243;-50
2023/03/02 05:15:28;;;;;;;1338.80;999.90;;;1.10;99.90;;;;;;5092660;28;20611;-50
2023/03/02 05:17:56;;;;;;;1999.90;999.90;;;1.10;99.90;;;;;;5091993;28;20213;-50
2023/03/02 05:20:26;;;;;;;1689.20;999.90;;;1.00;99.90;;;;;;5092510;28;20322;-50
2023/03/02 05:22:55;;;;;;;1999.90;999.90;;;1.00;99.90;;;;;;5092418;28;20306;-50
2023/03/02 05:25:24;;;;;;;1981.37;999.90;;;1.00;99.90;;;;;;5092621;28;20238;-50
2023/03/02 05:27:52;;;;;;;1979.03;999.90;;;1.00;99.90;;;;;;5092644;28;20322;-50
2023/03/02 05:30:21;;;;;;;1999.90;999.90;;;1.00;99.90;;;;;;5092032;28;20879;-52
2023/03/02 05:32:51;;;;;;;1729.33;999.90;;;0.90;99.90;;;;;;5092719;28;20256;-52
2023/03/02 05:35:20;;;;;;;1999.90;999.90;;;1.00;99.90;;;;;;5092366;28;20619;-52
2023/03/02 05:37:48;;;;;;;1884.07;999.90;;;1.00;99.90;;;;;;5092202;28;20210;-51
2023/03/02 05:40:21;;;;;;;1452.37;999.90;;;1.00;99.90;;;;;;5092633;28;20309;-50
2023/03/02 05:42:49;;;;;;;1990.27;999.90;;;1.00;99.90;;;;;;5092224;28;20302;-50
2023/03/02 05:45:22;;;;;;;1371.10;999.90;;;0.90;99.90;;;;;;5091863;28;20747;-50
2023/03/02 05:47:51;;;;;;;1999.90;999.90;;;0.90;99.90;;;;;;5092460;28;20301;-51
2023/03/02 05:50:20;;;;;;;1528.13;999.90;;;0.90;99.90;;;;;;5091825;28;20742;-50
2023/03/02 05:52:48;;;;;;;1709.73;999.90;;;0.90;99.90;;;;;;5092315;28;20239;-50
2023/03/02 05:55:17;;;;;;;1467.23;999.90;;;0.90;99.90;;;;;;5092303;28;20262;-50
2023/03/02 05:57:48;;;;;;;1577.40;999.90;;;0.90;99.90;;;;;;5091734;28;20293;-50
2023/03/02 06:00:17;;;;;;;1999.90;999.90;;;0.90;99.90;;;;;;5091947;28;20241;-50
2023/03/02 06:02:45;;;;;;;1230.33;999.90;;;0.90;99.90;;;;;;5091702;28;20257;-50
2023/03/02 06:05:17;;;;;;;1390.43;999.90;;;0.80;99.90;;;;;;5091727;28;20204;-50
2023/03/02 06:07:46;;;;;;;1430.13;999.90;;;0.80;99.90;;;;;;5091795;28;20759;-50
2023/03/02 06:10:14;;;;;;;1999.90;999.90;;;0.80;99.90;;;;;;5091987;28;20262;-50
2023/03/02 06:12:42;;;;;;;1999.90;999.90;;;0.70;99.90;;;;;;5091964;28;20307;-50
2023/03/02 06:15:10;;;;;;;1542.77;999.90;;;0.70;99.90;;;;;;5077820;28;20251;-50
2023/03/02 06:17:39;;;;;;;1681.23;999.90;;;0.80;99.90;;;;;;5091577;28;20238;-50
2023/03/02 06:20:09;;;;;;;1999.90;999.90;;;0.80;99.90;;;;;;5091239;28;20254;-50
2023/03/02 06:22:41;;;;;;;1520.37;999.90;;;0.80;99.90;;;;;;5091446;28;20245;-50
2023/03/02 06:25:11;;;;;;;1964.60;999.90;;;0.80;99.90;;;;;;5091262;28;20239;-50
2023/03/02 06:27:40;;;;;;;1999.90;999.90;;;0.80;99.90;;;;;;5091432;28;20216;-50
2023/03/02 06:30:12;;;;;;;1331.50;999.90;;;0.80;99.90;;;;;;5091477;28;20601;-50
2023/03/02 06:32:41;;;;;;;1494.20;999.90;;;0.80;99.90;;;;;;5091396;28;20639;-50
2023/03/02 06:35:10;;;;;;;1609.30;999.90;;;0.80;99.90;;;;;;5090931;28;20715;-50
2023/03/02 06:37:40;;;;;;;1491.73;999.90;;;0.80;99.90;;;;;;5091371;28;20216;-50
2023/03/02 06:40:12;;;;;;;1999.90;999.90;;;0.80;99.90;;;;;;5096383;28;20237;-51
2023/03/02 06:42:42;;;;;;;1859.60;999.90;;;0.90;99.90;;;;;;5100342;28;20213;-50
2023/03/02 06:45:11;;;;;;;1546.57;999.90;;;0.90;99.90;;;;;;5099834;28;20202;-50
2023/03/02 06:47:39;;;;;;;1292.03;999.90;;;0.90;99.90;;;;;;5092293;28;20217;-50
2023/03/02 06:50:08;;;;;;;1396.47;999.90;;;0.90;99.90;;;;;;5081180;28;20264;-51
2023/03/02 06:52:36;;;;;;;1999.90;999.90;;;1.10;99.90;;;;;;5090868;28;20886;-50
2023/03/02 06:55:07;;;;;;;1025.50;929.57;;;1.40;99.90;;;;;;5091397;28;20220;-51
2023/03/02 06:57:35;;;;;;;1999.90;999.90;;;1.70;99.90;;;;;;5091027;28;20260;-51
2023/03/02 07:00:08;;;;;;;1279.20;930.80;;;1.90;99.90;;;;;;5090639;28;20890;-51
2023/03/02 07:02:37;;;;;;;1133.67;943.87;;;2.20;99.90;;;;;;5085364;28;20920;-51
2023/03/02 07:05:06;;;;;;;1110.77;906.57;;;2.30;99.90;;;;;;5090163;28;20731;-50
2023/03/02 07:07:34;;;;;;;1091.00;842.37;;;2.30;99.90;;;;;;5090600;28;20211;-51
2023/03/02 07:10:02;;;;;;;799.27;721.33;;;2.20;99.90;;;;;;5090171;28;20225;-51
2023/03/02 07:12:31;;;;;;;736.63;655.47;;;2.20;99.90;;;;;;5090383;28;20609;-51
2023/03/02 07:15:00;;;;;;;811.90;744.40;;;2.30;99.90;;;;;;5090378;28;20315;-51
2023/03/02 07:17:28;;;;;;;838.07;761.27;;;2.40;99.90;;;;;;5090469;28;20244;-51
2023/03/02 07:19:56;;;;;;;1130.60;877.67;;;2.70;99.90;;;;;;5090208;28;20312;-51
2023/03/02 07:22:24;;;;;;;838.17;763.60;;;2.90;99.90;;;;;;5090645;28;20301;-51
2023/03/02 07:24:52;;;;;;;872.13;784.17;;;3.10;99.90;;;;;;5090577;28;20294;-51
2023/03/02 07:27:20;;;;;;;708.77;647.70;;;3.20;99.90;;;;;;5090389;28;20210;-51
2023/03/02 07:29:49;;;;;;;869.57;777.47;;;3.40;99.90;;;;;;5089816;28;20260;-51
2023/03/02 07:32:17;;;;;;;876.97;788.60;;;3.60;99.90;;;;;;5090108;28;20287;-50
2023/03/02 07:34:45;;;;;;;1410.40;954.10;;;3.80;99.90;;;;;;5089527;28;20221;-49
2023/03/02 07:37:13;;;;;;;1068.67;928.97;;;3.80;99.90;;;;;;5076750;28;20249;-50
2023/03/02 07:39:41;;;;;;;931.53;835.70;;;3.90;99.90;;;;;;5089589;28;20967;-51
2023/03/02 07:42:11;;;;;;;1276.07;970.33;;;4.10;99.90;;;;;;5089237;28;20732;-51
2023/03/02 07:44:39;;;;;;;1420.50;999.90;;;4.10;99.90;;;;;;5089802;28;20625;-51
2023/03/02 07:47:09;;;;;;;1047.40;939.40;;;4.30;99.90;;;;;;5090039;28;20208;-50
2023/03/02 07:49:37;;;;;;;978.13;889.43;;;4.40;99.90;;;;;;5089588;28;20258;-52
2023/03/02 07:52:05;;;;;;;931.83;843.30;;;4.50;99.90;;;;;;5089735;28;20671;-52
2023/03/02 07:54:33;;;;;;;1099.53;981.30;;;4.50;99.90;;;;;;5089343;28;20772;-51
2023/03/02 07:57:01;;;;;;;1580.50;963.10;;;4.60;99.90;;;;;;5089893;28;20244;-52
2023/03/02 07:59:29;;;;;;;1082.83;931.40;;;4.70;99.50;;;;;;5089630;28;20306;-51
2023/03/02 08:01:57;;;;;;;983.90;891.23;;;4.60;99.60;;;;;;5089727;28;20208;-50
2023/03/02 08:04:27;;;;;;;885.37;813.33;;;4.60;99.20;;;;;;5089852;28;20207;-51
2023/03/02 08:06:55;;;;;;;1179.87;912.70;;;4.50;99.20;;;;;;5089736;28;20756;-50
2023/03/02 08:09:23;;;;;;;544.40;508.20;;;4.50;98.90;;;;;;5089188;28;20322;-51
2023/03/02 08:11:51;;;;;;;578.33;538.50;;;4.50;99.10;;;;;;5089487;28;20248;-51
2023/03/02 08:14:19;;;;;;;539.27;496.83;;;4.40;98.10;;;;;;5089666;28;20294;-51
2023/03/02 08:16:47;;;;;;;773.90;695.47;;;4.40;98.50;;;;;;5089164;28;20317;-51
2023/03/02 08:19:15;;;;;;;597.87;549.47;;;4.40;98.10;;;;;;5089519;28;20315;-51
2023/03/02 08:21:44;;;;;;;333.00;313.70;;;4.40;98.50;;;;;;5089163;28;20233;-50
2023/03/02 08:24:13;;;;;;;616.87;561.43;;;4.40;98.20;;;;;;5089546;28;20284;-50
2023/03/02 08:26:40;;;;;;;1090.30;829.43;;;4.50;98.10;;;;;;5089533;28;20217;-51
2023/03/02 08:29:09;;;;;;;379.40;356.73;;;4.50;98.00;;;;;;5089342;28;20227;-51
2023/03/02 08:31:37;;;;;;;335.97;317.33;;;4.60;97.90;;;;;;5074917;28;20293;-51
2023/03/02 08:34:05;;;;;;;569.20;528.47;;;4.60;97.80;;;;;;5086925;28;20212;-51
2023/03/02 08:36:33;;;;;;;362.40;341.10;;;4.70;97.90;;;;;;5088011;28;20253;-51
2023/03/02 08:39:03;;;;;;;536.53;489.60;;;4.70;97.80;;;;;;5089214;28;20257;-51
2023/03/02 08:41:33;;;;;;;787.03;702.20;;;4.70;97.50;;;;;;5092697;28;20634;-50
2023/03/02 08:44:01;;;;;;;1440.17;935.90;;;4.80;97.50;;;;;;5093607;28;20580;-50
2023/03/02 08:46:30;;;;;;;710.57;643.90;;;4.70;96.60;;;;;;5093253;28;20292;-50
2023/03/02 08:48:58;;;;;;;391.63;371.30;;;4.70;96.60;;;;;;5091103;28;20217;-50
2023/03/02 08:51:27;;;;;;;356.83;334.33;;;4.70;96.90;;;;;;5093073;28;20322;-50
2023/03/02 08:53:55;;;;;;;303.47;286.43;;;4.70;97.30;;;;;;5093476;28;20208;-50
2023/03/02 08:56:27;;;;;;;414.30;387.60;;;4.90;97.90;;;;;;5093105;28;20314;-50
2023/03/02 08:58:58;;;;;;;654.37;600.47;;;5.00;98.10;;;;;;5092668;28;21238;-50
2023/03/02 09:01:28;;;;;;;848.93;761.27;;;5.00;97.10;;;;;;5092918;28;20778;-50
2023/03/02 09:03:58;;;;;;;578.97;529.33;;;5.10;96.00;;;;;;5092818;28;20196;-50
2023/03/02 09:06:27;;;;;;;461.00;434.40;;;5.10;96.40;;;;;;5093105;28;20265;-50
2023/03/02 09:08:55;;;;;;;265.70;252.37;;;5.10;96.20;;;;;;5092614;28;20955;-50
2023/03/02 09:11:25;;;;;;;457.60;425.93;;;5.10;97.20;;;;;;5092923;28;20248;-50
2023/03/02 09:13:55;;;;;;;582.77;546.53;;;5.20;97.30;;;;;;5092759;28;20253;-50
2023/03/02 09:16:24;;;;;;;968.13;845.20;;;5.20;95.70;;;;;;5079573;28;20227;-50
2023/03/02 09:18:53;;;;;;;547.83;513.97;;;5.20;95.10;;;;;;5092636;28;20208;-50
2023/03/02 09:21:22;;;;;;;553.10;518.07;;;5.20;96.20;;;;;;5092878;28;20203;-50
2023/03/02 09:23:52;;;;;;;1266.67;850.63;;;5.30;95.70;;;;;;5092745;28;20298;-50
2023/03/02 09:26:20;;;;;;;659.17;617.63;;;5.30;94.60;;;;;;5092511;28;20237;-50
2023/03/02 09:28:49;;;;;;;481.70;455.07;;;5.40;95.00;;;;;;5092173;28;20299;-50
2023/03/02 09:31:17;;;;;;;1917.23;999.10;;;5.40;95.10;;;;;;5092530;28;20710;-50
2023/03/02 09:33:45;;;;;;;846.00;763.17;;;5.60;94.10;;;;;;5092543;28;20235;-50
2023/03/02 09:36:19;;;;;;;912.30;718.57;;;5.50;94.00;;;;;;5092155;28;20850;-50
2023/03/02 09:38:48;;;;;;;668.40;624.60;;;5.70;94.10;;;;;;5091933;28;20293;-51
2023/03/02 09:41:41;;;;;;;685.13;640.27;;;5.60;93.80;;;;;;5092626;28;20779;-50
2023/03/02 09:44:25;;;;;;;797.27;734.40;;;5.60;93.20;;;;;;5055805;28;20292;-50
2023/03/02 09:46:56;;;;;;;1999.90;999.90;;;5.60;93.60;;;;;;5092047;28;20319;-51
2023/03/02 09:49:32;;;;;;;751.50;694.00;;;5.70;92.60;;;;;;5091082;28;20220;-51
2023/03/02 09:52:11;;;;;;;780.43;719.03;;;5.80;93.50;;;;;;5091311;28;20214;-52
2023/03/02 09:54:40;;;;;;;883.63;799.37;;;5.80;92.90;;;;;;5091953;28;20208;-50
2023/03/02 09:57:20;;;;;;;799.27;740.97;;;5.80;92.30;;;;;;5091546;28;20226;-51
2023/03/02 09:59:56;;;;;;;939.53;840.10;;;5.80;92.60;;;;;;5091203;28;20261;-51
2023/03/02 10:02:37;;;;;;;776.80;720.20;;;5.90;92.30;;;;;;5085936;28;20219;-51
2023/03/02 10:05:12;;;;;;;623.03;582.23;;;5.90;92.60;;;;;;5091870;28;20310;-51
2023/03/02 10:07:40;;;;;;;951.93;853.10;;;5.90;92.80;;;;;;5091674;28;20248;-50
2023/03/02 10:10:33;;;;;;;871.37;795.17;;;6.00;93.10;;;;;;5091849;28;20671;-51
2023/03/02 10:13:11;;;;;;;1967.97;977.23;;;6.00;92.60;;;;;;5091012;28;20733;-50
2023/03/02 10:15:48;;;;;;;744.43;687.70;;;6.10;93.00;;;;;;5091807;28;20233;-51
2023/03/02 10:18:21;;;;;;;1191.20;781.63;;;6.10;93.00;;;;;;5091741;28;20201;-49
2023/03/02 10:20:54;;;;;;;854.03;770.47;;;6.10;92.40;;;;;;5091153;28;20220;-50
2023/03/02 10:23:41;;;;;;;837.37;754.93;;;6.20;92.90;;;;;;5091573;28;20215;-50
2023/03/02 10:26:22;;;;;;;1118.50;907.73;;;6.00;92.10;;;;;;5091598;28;20673;-50
2023/03/02 10:28:58;;;;;;;1820.33;906.33;;;6.10;92.50;;;;;;5090872;28;20733;-50
2023/03/02 10:31:29;;;;;;;1999.90;999.90;;;6.10;92.70;;;;;;5091819;28;20586;-50
2023/03/02 10:33:58;;;;;;;1173.20;824.47;;;6.20;92.50;;;;;;5091131;28;20212;-50
2023/03/02 10:36:27;;;;;;;1999.90;999.90;;;6.30;92.70;;;;;;5091537;28;20318;-50
2023/03/02 10:38:59;;;;;;;1129.80;822.63;;;6.40;92.50;;;;;;5090760;28;20200;-50
2023/03/02 10:41:32;;;;;;;1786.87;999.90;;;6.30;92.60;;;;;;5091137;28;20694;-50
2023/03/02 10:44:06;;;;;;;1999.90;999.90;;;6.30;93.20;;;;;;5090748;28;20242;-50
2023/03/02 10:46:43;;;;;;;1999.90;996.20;;;6.50;92.60;;;;;;5090637;28;20286;-50
2023/03/02 10:49:25;;;;;;;945.60;799.50;;;6.40;92.90;;;;;;5090828;28;20612;-50
2023/03/02 10:52:01;;;;;;;1001.47;714.57;;;6.30;92.50;;;;;;5091069;28;20291;-50
2023/03/02 10:54:31;;;;;;;1588.50;925.23;;;6.30;92.90;;;;;;5090199;28;20721;-50
2023/03/02 10:57:02;;;;;;;1999.90;999.90;;;6.40;93.30;;;;;;5090742;28;20316;-50
2023/03/02 10:59:42;;;;;;;1232.50;871.53;;;6.60;93.90;;;;;;5089911;28;20306;-50
2023/03/02 11:02:16;;;;;;;1778.73;934.63;;;6.60;94.10;;;;;;5090981;28;20208;-50
2023/03/02 11:04:45;;;;;;;616.30;563.87;;;6.60;93.80;;;;;;5089091;28;20305;-50
2023/03/02 11:07:17;;;;;;;1999.90;999.90;;;6.60;94.30;;;;;;5090885;28;20204;-50
2023/03/02 11:10:00;;;;;;;624.33;577.47;;;6.70;94.00;;;;;;5089955;28;20482;-50
2023/03/02 11:12:29;;;;;;;1999.90;996.93;;;6.70;94.50;;;;;;5090030;28;20241;-51
2023/03/02 11:15:17;;;;;;;1380.00;864.97;;;6.70;94.90;;;;;;5089198;28;20291;-50
2023/03/02 11:17:50;;;;;;;1999.90;999.90;;;6.80;94.70;;;;;;5093651;28;20222;-50
2023/03/02 11:20:27;;;;;;;1865.47;999.03;;;7.00;94.80;;;;;;5089280;28;20238;-51
2023/03/02 11:23:05;;;;;;;670.17;614.67;;;7.00;94.60;;;;;;5087411;28;20231;-50
2023/03/02 11:25:38;;;;;;;1999.90;999.90;;;6.90;94.50;;;;;;5093229;28;20911;-50
2023/03/02 11:28:12;;;;;;;1999.90;999.90;;;7.00;94.90;;;;;;5092891;28;20232;-51
2023/03/02 11:30:49;;;;;;;1533.33;952.50;;;7.20;94.20;;;;;;5090729;28;20234;-51
2023/03/02 11:33:24;;;;;;;530.57;497.10;;;7.20;94.00;;;;;;5080472;28;20244;-51
2023/03/02 11:35:55;;;;;;;744.07;686.17;;;7.20;93.60;;;;;;5087739;28;20305;-50
2023/03/02 11:38:26;;;;;;;1999.90;999.90;;;7.20;93.90;;;;;;5088727;28;20305;-51
2023/03/02 11:40:58;;;;;;;1573.87;948.33;;;7.20;93.90;;;;;;5089223;28;20265;-51
2023/03/02 11:43:26;;;;;;;699.27;644.57;;;7.30;93.10;;;;;;5089695;28;20653;-51
2023/03/02 11:45:59;;;;;;;860.33;784.47;;;7.30;93.90;;;;;;5089717;28;20246;-50
2023/03/02 11:48:32;;;;;;;1999.90;999.90;;;7.30;93.20;;;;;;5089332;28;20665;-51
2023/03/02 11:51:04;;;;;;;1999.90;999.90;;;7.40;92.30;;;;;;5088692;28;20617;-51
2023/03/02 11:53:41;;;;;;;1186.80;899.20;;;7.50;92.10;;;;;;5090172;28;20283;-51
2023/03/02 11:56:09;;;;;;;1422.80;999.90;;;7.40;91.90;;;;;;5090063;28;20200;-50
2023/03/02 11:58:38;;;;;;;1999.90;999.90;;;7.50;92.00;;;;;;5092214;28;20266;-50
2023/03/02 12:01:09;;;;;;;1316.00;983.57;;;7.40;91.50;;;;;;5091340;28;20319;-50
2023/03/02 12:03:41;;;;;;;925.97;830.30;;;7.60;91.80;;;;;;5090273;28;20196;-50
2023/03/02 12:06:27;;;;;;;1245.90;964.67;;;7.60;92.10;;;;;;5083641;28;20299;-51
2023/03/02 12:09:09;;;;;;;750.73;695.73;;;7.70;92.30;;;;;;5078488;28;20204;-51
2023/03/02 12:11:39;;;;;;;851.80;784.47;;;7.60;91.70;;;;;;5079403;28;20299;-51
2023/03/02 12:14:26;;;;;;;859.30;788.57;;;7.80;92.70;;;;;;5089346;28;20232;-52
2023/03/02 12:17:05;;;;;;;1796.07;998.73;;;7.80;92.10;;;;;;5089266;28;20314;-52
2023/03/02 12:19:42;;;;;;;887.83;814.77;;;7.80;91.70;;;;;;5087817;28;20228;-52
2023/03/02 12:22:13;;;;;;;966.93;871.97;;;7.80;91.50;;;;;;5074474;28;20239;-51
2023/03/02 12:24:43;;;;;;;1999.90;999.90;;;7.90;92.00;;;;;;5082209;28;20197;-51
2023/03/02 12:27:25;;;;;;;921.03;843.90;;;7.90;90.20;;;;;;5084957;28;20683;-51
2023/03/02 12:30:08;;;;;;;830.70;769.43;;;7.90;90.10;;;;;;5079011;28;20239;-52
2023/03/02 12:32:37;;;;;;;1037.83;895.37;;;7.90;90.60;;;;;;5088703;28;20210;-50